sensor_id;sensor_type;location;lat;lon;timestamp;pressure;altitude;pressure_sealevel;temperature;humidity
46724;BME280;32463;48.298;11.620;2023-12-07T00:00:09;96529.66;;;0.11;100.00
46724;BME280;32463;48.298;11.620;2023-12-07T00:02:35;96538.69;;;0.17;100.00
46724;BME280;32463;48.298;11.620;2023-12-07T00:05:02;96535.56;;;0.12;100.00
46724;BME280;32463;48.298;11.620;2023-12-07T00:07:29;96531.56;;;0.08;100.00
46724;BME280;32463;48.298;11.620;2023-12-07T00:09:55;96539.22;;;0.08;100.00
46724;BME280;32463;48.298;11.620;2023-12-07T00:12:22;96538.56;;;0.04;100.00
46724;BME280;32463;48.298;11.620;2023-12-07T00:14:49;96543.22;;;-0.03;100.00
46724;BME280;32463;48.298;11.620;2023-12-07T00:17:15;96532.16;;;-0.17;100.00
46724;BME280;32463;48.298;11.620;2023-12-07T00:19:41;96537.88;;;-0.28;100.00
46724;BME280;32463;48.298;11.620;2023-12-07T00:22:08;96532.75;;;-0.42;100.00
46724;BME280;32463;48.298;11.620;2023-12-07T00:24:34;96528.91;;;-0.49;100.00
46724;BME280;32463;48.298;11.620;2023-12-07T00:27:01;96530.22;;;-0.58;100.00
46724;BME280;32463;48.298;11.620;2023-12-07T00:29:27;96536.31;;;-0.60;100.00
46724;BME280;32463;48.298;11.620;2023-12-07T00:31:54;96533.69;;;-0.59;100.00
46724;BME280;32463;48.298;11.620;2023-12-07T00:34:20;96541.94;;;-0.70;100.00
46724;BME280;32463;48.298;11.620;2023-12-07T00:36:47;96535.53;;;-0.77;100.00
46724;BME280;32463;48.298;11.620;2023-12-07T00:39:13;96543.84;;;-0.89;100.00
46724;BME280;32463;48.298;11.620;2023-12-07T00:41:40;96547.38;;;-0.91;100.00
46724;BME280;32463;48.298;11.620;2023-12-07T00:44:06;96549.81;;;-0.90;100.00
46724;BME280;32463;48.298;11.620;2023-12-07T00:46:32;96546.75;;;-0.95;100.00
46724;BME280;32463;48.298;11.620;2023-12-07T00:48:59;96551.00;;;-0.95;100.00
46724;BME280;32463;48.298;11.620;2023-12-07T00:51:25;96556.56;;;-0.89;100.00
46724;BME280;32463;48.298;11.620;2023-12-07T00:53:52;96555.09;;;-0.93;100.00
46724;BME280;32463;48.298;11.620;2023-12-07T00:56:18;96556.75;;;-0.92;100.00
46724;BME280;32463;48.298;11.620;2023-12-07T00:58:45;96563.44;;;-0.91;100.00
46724;BME280;32463;48.298;11.620;2023-12-07T01:01:12;96563.44;;;-0.91;100.00
46724;BME280;32463;48.298;11.620;2023-12-07T01:03:38;96567.56;;;-0.88;100.00
46724;BME280;32463;48.298;11.620;2023-12-07T01:06:06;96572.03;;;-0.92;100.00
46724;BME280;32463;48.298;11.620;2023-12-07T01:08:33;96567.25;;;-0.98;100.00
46724;BME280;32463;48.298;11.620;2023-12-07T01:11:00;96566.56;;;-1.17;100.00
46724;BME280;32463;48.298;11.620;2023-12-07T01:13:26;96575.94;;;-1.33;100.00
46724;BME280;32463;48.298;11.620;2023-12-07T01:15:53;96576.72;;;-1.49;100.00
46724;BME280;32463;48.298;11.620;2023-12-07T01:18:20;96578.50;;;-1.51;100.00
46724;BME280;32463;48.298;11.620;2023-12-07T01:20:46;96583.59;;;-1.51;100.00
46724;BME280;32463;48.298;11.620;2023-12-07T01:23:14;96581.06;;;-1.51;100.00
46724;BME280;32463;48.298;11.620;2023-12-07T01:25:40;96581.72;;;-1.47;100.00
46724;BME280;32463;48.298;11.620;2023-12-07T01:28:07;96589.84;;;-1.41;100.00
46724;BME280;32463;48.298;11.620;2023-12-07T01:30:34;96584.53;;;-1.36;100.00
46724;BME280;32463;48.298;11.620;2023-12-07T01:33:01;96587.97;;;-1.37;100.00
46724;BME280;32463;48.298;11.620;2023-12-07T01:35:28;96590.28;;;-1.32;100.00
46724;BME280;32463;48.298;11.620;2023-12-07T01:37:55;96587.28;;;-1.23;100.00
46724;BME280;32463;48.298;11.620;2023-12-07T01:40:21;96595.47;;;-1.18;100.00
46724;BME280;32463;48.298;11.620;2023-12-07T01:42:51;96591.03;;;-1.15;100.00
46724;BME280;32463;48.298;11.620;2023-12-07T01:45:19;96594.63;;;-1.19;100.00
46724;BME280;32463;48.298;11.620;2023-12-07T01:47:46;96596.94;;;-1.14;100.00
46724;BME280;32463;48.298;11.620;2023-12-07T01:50:14;96602.19;;;-1.17;100.00
46724;BME280;32463;48.298;11.620;2023-12-07T01:52:45;96597.09;;;-1.17;100.00
46724;BME280;32463;48.298;11.620;2023-12-07T01:55:14;96606.22;;;-1.13;100.00
46724;BME280;32463;48.298;11.620;2023-12-07T01:57:41;96605.31;;;-1.12;100.00
46724;BME280;32463;48.298;11.620;2023-12-07T02:00:10;96608.75;;;-1.13;100.00
46724;BME280;32463;48.298;11.620;2023-12-07T02:02:37;96605.63;;;-1.18;100.00
46724;BME280;32463;48.298;11.620;2023-12-07T02:05:04;96610.88;;;-1.21;100.00
46724;BME280;32463;48.298;11.620;2023-12-07T02:07:33;96610.56;;;-1.15;100.00
46724;BME280;32463;48.298;11.620;2023-12-07T02:10:00;96611.22;;;-1.12;100.00
46724;BME280;32463;48.298;11.620;2023-12-07T02:12:26;96612.88;;;-1.26;100.00
46724;BME280;32463;48.298;11.620;2023-12-07T02:14:55;96612.50;;;-1.36;100.00
46724;BME280;32463;48.298;11.620;2023-12-07T02:17:30;96604.28;;;-1.41;100.00
46724;BME280;32463;48.298;11.620;2023-12-07T02:22:48;96607.38;;;-1.52;100.00
46724;BME280;32463;48.298;11.620;2023-12-07T02:25:18;96610.56;;;-1.64;100.00
46724;BME280;32463;48.298;11.620;2023-12-07T02:27:45;96618.03;;;-1.61;100.00
46724;BME280;32463;48.298;11.620;2023-12-07T02:30:11;96618.53;;;-1.54;100.00
46724;BME280;32463;48.298;11.620;2023-12-07T02:32:39;96620.50;;;-1.59;100.00
46724;BME280;32463;48.298;11.620;2023-12-07T02:35:07;96625.28;;;-1.53;100.00
46724;BME280;32463;48.298;11.620;2023-12-07T02:37:53;96619.06;;;-1.65;100.00
46724;BME280;32463;48.298;11.620;2023-12-07T02:40:24;96614.44;;;-1.74;100.00
46724;BME280;32463;48.298;11.620;2023-12-07T02:42:56;96616.09;;;-1.73;100.00
46724;BME280;32463;48.298;11.620;2023-12-07T02:45:22;96622.91;;;-1.74;100.00
46724;BME280;32463;48.298;11.620;2023-12-07T02:47:51;96624.47;;;-1.71;100.00
46724;BME280;32463;48.298;11.620;2023-12-07T02:50:17;96628.66;;;-1.70;100.00
46724;BME280;32463;48.298;11.620;2023-12-07T02:52:44;96634.78;;;-1.74;100.00
46724;BME280;32463;48.298;11.620;2023-12-07T02:55:10;96641.81;;;-1.62;100.00
46724;BME280;32463;48.298;11.620;2023-12-07T02:57:37;96640.59;;;-1.72;100.00
46724;BME280;32463;48.298;11.620;2023-12-07T03:00:04;96643.00;;;-1.69;100.00
46724;BME280;32463;48.298;11.620;2023-12-07T03:02:37;96631.63;;;-1.79;100.00
46724;BME280;32463;48.298;11.620;2023-12-07T03:05:04;96641.50;;;-1.73;100.00
46724;BME280;32463;48.298;11.620;2023-12-07T03:07:31;96646.13;;;-1.64;100.00
46724;BME280;32463;48.298;11.620;2023-12-07T03:09:57;96649.28;;;-1.76;100.00
46724;BME280;32463;48.298;11.620;2023-12-07T03:12:24;96645.84;;;-1.75;100.00
46724;BME280;32463;48.298;11.620;2023-12-07T03:14:50;96651.06;;;-1.78;100.00
46724;BME280;32463;48.298;11.620;2023-12-07T03:17:17;96655.84;;;-1.72;100.00
46724;BME280;32463;48.298;11.620;2023-12-07T03:19:44;96652.56;;;-1.74;100.00
46724;BME280;32463;48.298;11.620;2023-12-07T03:22:10;96654.34;;;-1.76;100.00
46724;BME280;32463;48.298;11.620;2023-12-07T03:24:39;96652.50;;;-1.73;100.00
46724;BME280;32463;48.298;11.620;2023-12-07T03:27:06;96650.63;;;-1.69;100.00
46724;BME280;32463;48.298;11.620;2023-12-07T03:29:32;96651.59;;;-1.72;100.00
46724;BME280;32463;48.298;11.620;2023-12-07T03:31:59;96653.31;;;-1.72;100.00
46724;BME280;32463;48.298;11.620;2023-12-07T03:34:25;96653.69;;;-1.80;100.00
46724;BME280;32463;48.298;11.620;2023-12-07T03:36:52;96661.09;;;-1.75;100.00
46724;BME280;32463;48.298;11.620;2023-12-07T03:39:18;96659.16;;;-1.70;100.00
46724;BME280;32463;48.298;11.620;2023-12-07T03:41:47;96662.28;;;-1.65;100.00
46724;BME280;32463;48.298;11.620;2023-12-07T03:44:14;96662.13;;;-1.62;100.00
46724;BME280;32463;48.298;11.620;2023-12-07T03:46:41;96659.88;;;-1.51;100.00
46724;BME280;32463;48.298;11.620;2023-12-07T03:49:07;96659.03;;;-1.51;100.00
46724;BME280;32463;48.298;11.620;2023-12-07T03:51:34;96658.41;;;-1.55;100.00
46724;BME280;32463;48.298;11.620;2023-12-07T03:54:02;96652.63;;;-1.58;100.00
46724;BME280;32463;48.298;11.620;2023-12-07T03:56:31;96653.47;;;-1.58;100.00
46724;BME280;32463;48.298;11.620;2023-12-07T03:58:58;96658.53;;;-1.58;100.00
46724;BME280;32463;48.298;11.620;2023-12-07T04:01:25;96656.56;;;-1.53;100.00
46724;BME280;32463;48.298;11.620;2023-12-07T04:03:53;96663.78;;;-1.61;100.00
46724;BME280;32463;48.298;11.620;2023-12-07T04:06:22;96655.34;;;-1.61;100.00
46724;BME280;32463;48.298;11.620;2023-12-07T04:08:48;96654.44;;;-1.60;100.00
46724;BME280;32463;48.298;11.620;2023-12-07T04:11:16;96659.38;;;-1.57;100.00
46724;BME280;32463;48.298;11.620;2023-12-07T04:13:43;96661.75;;;-1.72;100.00
46724;BME280;32463;48.298;11.620;2023-12-07T04:16:10;96661.97;;;-1.76;100.00
46724;BME280;32463;48.298;11.620;2023-12-07T04:18:37;96661.69;;;-1.70;100.00
46724;BME280;32463;48.298;11.620;2023-12-07T04:21:04;96663.94;;;-1.64;100.00
46724;BME280;32463;48.298;11.620;2023-12-07T04:23:30;96664.22;;;-1.70;100.00
46724;BME280;32463;48.298;11.620;2023-12-07T04:25:57;96666.69;;;-1.68;100.00
46724;BME280;32463;48.298;11.620;2023-12-07T04:28:23;96668.72;;;-1.75;100.00
46724;BME280;32463;48.298;11.620;2023-12-07T04:30:50;96667.81;;;-1.74;100.00
46724;BME280;32463;48.298;11.620;2023-12-07T04:33:16;96679.50;;;-1.87;100.00
46724;BME280;32463;48.298;11.620;2023-12-07T04:35:43;96675.44;;;-1.91;100.00
46724;BME280;32463;48.298;11.620;2023-12-07T04:38:10;96672.00;;;-1.90;100.00
46724;BME280;32463;48.298;11.620;2023-12-07T04:40:36;96672.59;;;-2.03;100.00
46724;BME280;32463;48.298;11.620;2023-12-07T04:43:03;96672.31;;;-1.96;100.00
46724;BME280;32463;48.298;11.620;2023-12-07T04:45:29;96674.78;;;-1.95;100.00
46724;BME280;32463;48.298;11.620;2023-12-07T04:47:56;96684.69;;;-2.08;100.00
46724;BME280;32463;48.298;11.620;2023-12-07T04:50:23;96688.59;;;-2.00;100.00
46724;BME280;32463;48.298;11.620;2023-12-07T04:52:49;96695.78;;;-1.91;100.00
46724;BME280;32463;48.298;11.620;2023-12-07T04:55:16;96693.38;;;-1.94;100.00
46724;BME280;32463;48.298;11.620;2023-12-07T04:57:42;96694.59;;;-1.84;100.00
46724;BME280;32463;48.298;11.620;2023-12-07T05:00:09;96697.13;;;-1.84;100.00
46724;BME280;32463;48.298;11.620;2023-12-07T05:02:36;96690.69;;;-1.91;100.00
46724;BME280;32463;48.298;11.620;2023-12-07T05:05:04;96695.78;;;-1.91;100.00
46724;BME280;32463;48.298;11.620;2023-12-07T05:07:30;96689.47;;;-2.01;100.00
46724;BME280;32463;48.298;11.620;2023-12-07T05:09:57;96698.13;;;-2.06;100.00
46724;BME280;32463;48.298;11.620;2023-12-07T05:12:23;96694.28;;;-1.95;100.00
46724;BME280;32463;48.298;11.620;2023-12-07T05:14:50;96688.44;;;-2.15;100.00
46724;BME280;32463;48.298;11.620;2023-12-07T05:17:16;96691.22;;;-2.38;100.00
46724;BME280;32463;48.298;11.620;2023-12-07T05:19:44;96701.09;;;-2.32;100.00
46724;BME280;32463;48.298;11.620;2023-12-07T05:22:10;96699.75;;;-2.58;100.00
46724;BME280;32463;48.298;11.620;2023-12-07T05:24:37;96698.25;;;-2.81;100.00
46724;BME280;32463;48.298;11.620;2023-12-07T05:27:04;96696.88;;;-2.88;100.00
46724;BME280;32463;48.298;11.620;2023-12-07T05:29:30;96693.84;;;-2.96;100.00
46724;BME280;32463;48.298;11.620;2023-12-07T05:31:57;96699.91;;;-2.80;100.00
46724;BME280;32463;48.298;11.620;2023-12-07T05:34:23;96697.44;;;-2.81;100.00
46724;BME280;32463;48.298;11.620;2023-12-07T05:36:50;96702.56;;;-2.83;100.00
46724;BME280;32463;48.298;11.620;2023-12-07T05:39:17;96704.09;;;-2.79;100.00
46724;BME280;32463;48.298;11.620;2023-12-07T05:41:43;96704.75;;;-2.75;100.00
46724;BME280;32463;48.298;11.620;2023-12-07T05:44:11;96699.81;;;-2.97;100.00
46724;BME280;32463;48.298;11.620;2023-12-07T05:46:38;96696.44;;;-2.97;100.00
46724;BME280;32463;48.298;11.620;2023-12-07T05:49:10;96697.00;;;-2.91;100.00
46724;BME280;32463;48.298;11.620;2023-12-07T05:51:36;96705.16;;;-2.65;100.00
46724;BME280;32463;48.298;11.620;2023-12-07T05:54:03;96701.53;;;-2.60;100.00
46724;BME280;32463;48.298;11.620;2023-12-07T05:56:31;96701.94;;;-2.88;100.00
46724;BME280;32463;48.298;11.620;2023-12-07T05:58:58;96703.72;;;-2.71;100.00
46724;BME280;32463;48.298;11.620;2023-12-07T06:01:24;96700.69;;;-2.98;100.00
46724;BME280;32463;48.298;11.620;2023-12-07T06:03:50;96698.72;;;-3.30;100.00
46724;BME280;32463;48.298;11.620;2023-12-07T06:06:17;96702.56;;;-3.41;100.00
46724;BME280;32463;48.298;11.620;2023-12-07T06:08:46;96705.38;;;-3.28;100.00
46724;BME280;32463;48.298;11.620;2023-12-07T06:11:12;96703.81;;;-3.30;100.00
46724;BME280;32463;48.298;11.620;2023-12-07T06:13:39;96699.66;;;-3.52;100.00
46724;BME280;32463;48.298;11.620;2023-12-07T06:16:06;96716.50;;;-3.51;100.00
46724;BME280;32463;48.298;11.620;2023-12-07T06:18:33;96698.00;;;-3.53;100.00
46724;BME280;32463;48.298;11.620;2023-12-07T06:21:00;96714.47;;;-3.63;100.00
46724;BME280;32463;48.298;11.620;2023-12-07T06:23:28;96705.38;;;-3.67;100.00
46724;BME280;32463;48.298;11.620;2023-12-07T06:25:54;96700.78;;;-3.79;100.00
46724;BME280;32463;48.298;11.620;2023-12-07T06:28:21;96704.56;;;-3.89;100.00
46724;BME280;32463;48.298;11.620;2023-12-07T06:30:47;96701.72;;;-3.82;100.00
46724;BME280;32463;48.298;11.620;2023-12-07T06:33:14;96713.16;;;-3.71;100.00
46724;BME280;32463;48.298;11.620;2023-12-07T06:35:40;96721.06;;;-3.79;100.00
46724;BME280;32463;48.298;11.620;2023-12-07T06:38:07;96720.22;;;-3.80;100.00
46724;BME280;32463;48.298;11.620;2023-12-07T06:40:33;96728.31;;;-3.92;100.00
46724;BME280;32463;48.298;11.620;2023-12-07T06:43:00;96726.84;;;-3.97;100.00
46724;BME280;32463;48.298;11.620;2023-12-07T06:45:26;96735.56;;;-4.04;100.00
46724;BME280;32463;48.298;11.620;2023-12-07T06:47:52;96736.75;;;-4.13;100.00
46724;BME280;32463;48.298;11.620;2023-12-07T06:50:19;96738.03;;;-4.25;100.00
46724;BME280;32463;48.298;11.620;2023-12-07T06:52:46;96734.75;;;-4.27;100.00
46724;BME280;32463;48.298;11.620;2023-12-07T06:55:12;96738.28;;;-4.31;100.00
46724;BME280;32463;48.298;11.620;2023-12-07T06:57:39;96735.13;;;-4.36;100.00
46724;BME280;32463;48.298;11.620;2023-12-07T07:00:06;96733.34;;;-4.34;100.00
46724;BME280;32463;48.298;11.620;2023-12-07T07:02:37;96741.72;;;-4.32;100.00
46724;BME280;32463;48.298;11.620;2023-12-07T07:05:04;96743.34;;;-4.31;100.00
46724;BME280;32463;48.298;11.620;2023-12-07T07:07:31;96736.38;;;-4.26;100.00
46724;BME280;32463;48.298;11.620;2023-12-07T07:09:57;96737.91;;;-4.22;100.00
46724;BME280;32463;48.298;11.620;2023-12-07T07:12:24;96738.03;;;-4.25;100.00
46724;BME280;32463;48.298;11.620;2023-12-07T07:14:50;96740.44;;;-4.22;100.00
46724;BME280;32463;48.298;11.620;2023-12-07T07:17:17;96742.03;;;-3.97;100.00
46724;BME280;32463;48.298;11.620;2023-12-07T07:19:43;96738.97;;;-3.84;100.00
46724;BME280;32463;48.298;11.620;2023-12-07T07:22:10;96743.03;;;-3.80;100.00
46724;BME280;32463;48.298;11.620;2023-12-07T07:24:36;96743.03;;;-3.80;100.00
46724;BME280;32463;48.298;11.620;2023-12-07T07:27:03;96742.97;;;-3.78;100.00
46724;BME280;32463;48.298;11.620;2023-12-07T07:29:30;96745.91;;;-3.67;100.00
46724;BME280;32463;48.298;11.620;2023-12-07T07:31:57;96742.97;;;-3.58;100.00
46724;BME280;32463;48.298;11.620;2023-12-07T07:34:24;96749.69;;;-3.57;100.00
46724;BME280;32463;48.298;11.620;2023-12-07T07:36:51;96753.75;;;-3.53;100.00
46724;BME280;32463;48.298;11.620;2023-12-07T07:39:17;96747.78;;;-3.52;100.00
46724;BME280;32463;48.298;11.620;2023-12-07T07:41:44;96742.84;;;-3.55;100.00
46724;BME280;32463;48.298;11.620;2023-12-07T07:44:10;96752.09;;;-3.54;100.00
46724;BME280;32463;48.298;11.620;2023-12-07T07:46:37;96743.38;;;-3.47;100.00
46724;BME280;32463;48.298;11.620;2023-12-07T07:49:03;96753.13;;;-3.37;100.00
46724;BME280;32463;48.298;11.620;2023-12-07T07:51:30;96744.63;;;-3.36;100.00
46724;BME280;32463;48.298;11.620;2023-12-07T07:53:57;96734.22;;;-3.30;100.00
46724;BME280;32463;48.298;11.620;2023-12-07T07:56:23;96744.94;;;-3.24;100.00
46724;BME280;32463;48.298;11.620;2023-12-07T07:58:50;96737.00;;;-3.16;100.00
46724;BME280;32463;48.298;11.620;2023-12-07T08:01:16;96745.94;;;-3.08;100.00
46724;BME280;32463;48.298;11.620;2023-12-07T08:03:43;96747.59;;;-2.88;100.00
46724;BME280;32463;48.298;11.620;2023-12-07T08:06:09;96742.66;;;-2.91;100.00
46724;BME280;32463;48.298;11.620;2023-12-07T08:08:35;96737.47;;;-2.88;100.00
46724;BME280;32463;48.298;11.620;2023-12-07T08:11:02;96740.63;;;-2.83;100.00
46724;BME280;32463;48.298;11.620;2023-12-07T08:13:30;96743.63;;;-2.75;100.00
46724;BME280;32463;48.298;11.620;2023-12-07T08:15:57;96742.59;;;-2.71;100.00
46724;BME280;32463;48.298;11.620;2023-12-07T08:18:23;96737.75;;;-2.56;100.00
46724;BME280;32463;48.298;11.620;2023-12-07T08:20:51;96739.25;;;-2.52;100.00
46724;BME280;32463;48.298;11.620;2023-12-07T08:23:17;96738.25;;;-2.48;100.00
46724;BME280;32463;48.298;11.620;2023-12-07T08:25:43;96740.47;;;-2.42;100.00
46724;BME280;32463;48.298;11.620;2023-12-07T08:28:10;96738.56;;;-2.37;100.00
46724;BME280;32463;48.298;11.620;2023-12-07T08:30:37;96735.53;;;-2.26;100.00
46724;BME280;32463;48.298;11.620;2023-12-07T08:33:03;96742.66;;;-2.16;100.00
46724;BME280;32463;48.298;11.620;2023-12-07T08:35:30;96737.41;;;-2.13;100.00
46724;BME280;32463;48.298;11.620;2023-12-07T08:37:56;96748.19;;;-2.08;100.00
46724;BME280;32463;48.298;11.620;2023-12-07T08:40:23;96741.94;;;-2.00;100.00
46724;BME280;32463;48.298;11.620;2023-12-07T08:42:50;96744.66;;;-1.86;100.00
46724;BME280;32463;48.298;11.620;2023-12-07T08:45:16;96739.72;;;-1.72;100.00
46724;BME280;32463;48.298;11.620;2023-12-07T08:47:43;96748.28;;;-1.56;100.00
46724;BME280;32463;48.298;11.620;2023-12-07T08:50:10;96741.06;;;-1.48;100.00
46724;BME280;32463;48.298;11.620;2023-12-07T08:52:37;96738.91;;;-1.38;100.00
46724;BME280;32463;48.298;11.620;2023-12-07T08:55:04;96737.03;;;-1.34;100.00
46724;BME280;32463;48.298;11.620;2023-12-07T08:57:31;96738.97;;;-1.40;100.00
46724;BME280;32463;48.298;11.620;2023-12-07T08:59:57;96742.41;;;-1.23;100.00
46724;BME280;32463;48.298;11.620;2023-12-07T09:02:24;96737.75;;;-1.15;100.00
46724;BME280;32463;48.298;11.620;2023-12-07T09:04:51;96735.94;;;-0.96;100.00
46724;BME280;32463;48.298;11.620;2023-12-07T09:07:17;96726.97;;;-0.87;100.00
46724;BME280;32463;48.298;11.620;2023-12-07T09:09:45;96733.56;;;-0.83;100.00
46724;BME280;32463;48.298;11.620;2023-12-07T09:12:13;96729.41;;;-0.69;100.00
46724;BME280;32463;48.298;11.620;2023-12-07T09:14:41;96730.56;;;-0.58;100.00
46724;BME280;32463;48.298;11.620;2023-12-07T09:17:08;96731.63;;;-0.47;100.00
46724;BME280;32463;48.298;11.620;2023-12-07T09:19:34;96730.19;;;-0.35;100.00
46724;BME280;32463;48.298;11.620;2023-12-07T09:22:00;96727.03;;;-0.24;100.00
46724;BME280;32463;48.298;11.620;2023-12-07T09:24:27;96725.88;;;-0.19;100.00
46724;BME280;32463;48.298;11.620;2023-12-07T09:26:53;96723.75;;;-0.11;100.00
46724;BME280;32463;48.298;11.620;2023-12-07T09:29:20;96723.25;;;-0.02;100.00
46724;BME280;32463;48.298;11.620;2023-12-07T09:31:46;96725.88;;;-0.03;100.00
46724;BME280;32463;48.298;11.620;2023-12-07T09:34:13;96720.56;;;0.16;100.00
46724;BME280;32463;48.298;11.620;2023-12-07T09:36:43;96725.44;;;0.50;100.00
46724;BME280;32463;48.298;11.620;2023-12-07T09:39:09;96721.22;;;0.49;100.00
46724;BME280;32463;48.298;11.620;2023-12-07T09:41:36;96719.97;;;0.56;100.00
46724;BME280;32463;48.298;11.620;2023-12-07T09:44:04;96717.81;;;0.93;100.00
46724;BME280;32463;48.298;11.620;2023-12-07T09:46:30;96717.09;;;1.33;100.00
46724;BME280;32463;48.298;11.620;2023-12-07T09:48:57;96710.72;;;2.09;100.00
46724;BME280;32463;48.298;11.620;2023-12-07T09:51:24;96697.94;;;3.24;100.00
46724;BME280;32463;48.298;11.620;2023-12-07T09:53:52;96699.31;;;4.49;100.00
46724;BME280;32463;48.298;11.620;2023-12-07T09:56:19;96685.00;;;5.81;100.00
46724;BME280;32463;48.298;11.620;2023-12-07T09:58:46;96687.28;;;6.59;100.00
46724;BME280;32463;48.298;11.620;2023-12-07T10:01:12;96684.47;;;7.43;100.00
46724;BME280;32463;48.298;11.620;2023-12-07T10:03:40;96683.25;;;8.17;100.00
46724;BME280;32463;48.298;11.620;2023-12-07T10:06:06;96681.31;;;8.96;100.00
46724;BME280;32463;48.298;11.620;2023-12-07T10:08:33;96666.31;;;9.91;91.34
46724;BME280;32463;48.298;11.620;2023-12-07T10:11:05;96659.53;;;10.61;100.00
46724;BME280;32463;48.298;11.620;2023-12-07T10:13:33;96667.53;;;11.62;85.70
46724;BME280;32463;48.298;11.620;2023-12-07T10:18:34;96671.66;;;12.39;70.23
46724;BME280;32463;48.298;11.620;2023-12-07T10:21:01;96661.44;;;12.78;64.43
46724;BME280;32463;48.298;11.620;2023-12-07T10:23:28;96660.88;;;13.07;57.71
46724;BME280;32463;48.298;11.620;2023-12-07T10:25:57;96650.78;;;13.28;54.64
46724;BME280;32463;48.298;11.620;2023-12-07T10:28:24;96658.31;;;13.54;52.44
46724;BME280;32463;48.298;11.620;2023-12-07T10:30:51;96646.47;;;13.82;50.30
46724;BME280;32463;48.298;11.620;2023-12-07T10:33:19;96649.38;;;13.88;49.70
46724;BME280;32463;48.298;11.620;2023-12-07T10:35:46;96640.72;;;14.18;48.18
46724;BME280;32463;48.298;11.620;2023-12-07T10:38:13;96640.34;;;14.52;46.78
46724;BME280;32463;48.298;11.620;2023-12-07T10:40:40;96636.75;;;14.91;44.98
46724;BME280;32463;48.298;11.620;2023-12-07T10:43:08;96630.09;;;15.32;44.51
46724;BME280;32463;48.298;11.620;2023-12-07T10:45:35;96626.41;;;15.92;42.67
46724;BME280;32463;48.298;11.620;2023-12-07T10:48:09;96624.34;;;16.24;42.01
46724;BME280;32463;48.298;11.620;2023-12-07T10:50:46;96627.97;;;16.44;40.94
46724;BME280;32463;48.298;11.620;2023-12-07T10:53:42;96616.59;;;16.58;40.28
46724;BME280;32463;48.298;11.620;2023-12-07T10:56:18;96610.19;;;16.89;40.25
46724;BME280;32463;48.298;11.620;2023-12-07T10:58:50;96596.44;;;17.42;37.76
46724;BME280;32463;48.298;11.620;2023-12-07T11:01:16;96598.38;;;17.75;36.46
46724;BME280;32463;48.298;11.620;2023-12-07T11:03:44;96592.06;;;18.30;35.37
46724;BME280;32463;48.298;11.620;2023-12-07T11:06:12;96589.66;;;18.81;34.29
46724;BME280;32463;48.298;11.620;2023-12-07T11:08:43;96589.53;;;19.34;33.82
46724;BME280;32463;48.298;11.620;2023-12-07T11:14:06;96580.31;;;20.14;30.88
46724;BME280;32463;48.298;11.620;2023-12-07T11:16:37;96572.66;;;20.38;29.07
46724;BME280;32463;48.298;11.620;2023-12-07T11:19:04;96575.31;;;20.63;28.73
46724;BME280;32463;48.298;11.620;2023-12-07T11:21:31;96570.00;;;20.88;27.87
46724;BME280;32463;48.298;11.620;2023-12-07T11:24:00;96566.06;;;21.15;27.08
46724;BME280;32463;48.298;11.620;2023-12-07T11:26:27;96563.75;;;21.62;28.29
46724;BME280;32463;48.298;11.620;2023-12-07T11:28:55;96577.75;;;21.62;29.09
46724;BME280;32463;48.298;11.620;2023-12-07T11:31:22;96567.19;;;21.62;29.46
46724;BME280;32463;48.298;11.620;2023-12-07T11:33:48;96571.13;;;21.71;28.80
46724;BME280;32463;48.298;11.620;2023-12-07T11:36:15;96564.50;;;21.80;28.71
46724;BME280;32463;48.298;11.620;2023-12-07T11:41:54;96557.47;;;21.26;29.23
46724;BME280;32463;48.298;11.620;2023-12-07T11:44:33;96551.53;;;20.69;29.11
46724;BME280;32463;48.298;11.620;2023-12-07T11:47:00;96552.31;;;19.37;30.46
46724;BME280;32463;48.298;11.620;2023-12-07T11:49:28;96555.44;;;19.08;31.58
46724;BME280;32463;48.298;11.620;2023-12-07T11:51:56;96551.66;;;18.38;31.46
46724;BME280;32463;48.298;11.620;2023-12-07T11:54:23;96549.63;;;18.13;32.12
46724;BME280;32463;48.298;11.620;2023-12-07T11:56:54;96543.22;;;18.62;31.94
46724;BME280;32463;48.298;11.620;2023-12-07T11:59:22;96541.97;;;18.45;31.49
46724;BME280;32463;48.298;11.620;2023-12-07T12:01:51;96546.47;;;18.64;31.89
46724;BME280;32463;48.298;11.620;2023-12-07T12:04:18;96537.53;;;18.39;32.46
46724;BME280;32463;48.298;11.620;2023-12-07T12:06:46;96533.53;;;17.42;33.15
46724;BME280;32463;48.298;11.620;2023-12-07T12:09:13;96538.41;;;15.99;34.49
46724;BME280;32463;48.298;11.620;2023-12-07T12:11:46;96548.94;;;12.60;39.55
46724;BME280;32463;48.298;11.620;2023-12-07T12:14:19;96550.53;;;13.55;38.47
46724;BME280;32463;48.298;11.620;2023-12-07T12:16:46;96544.47;;;15.13;37.51
46724;BME280;32463;48.298;11.620;2023-12-07T12:19:13;96532.72;;;15.96;36.40
46724;BME280;32463;48.298;11.620;2023-12-07T12:21:40;96525.50;;;16.68;35.13
46724;BME280;32463;48.298;11.620;2023-12-07T12:24:09;96537.34;;;17.46;34.21
46724;BME280;32463;48.298;11.620;2023-12-07T12:26:39;96542.81;;;17.04;33.71
46724;BME280;32463;48.298;11.620;2023-12-07T12:29:07;96519.97;;;17.32;33.99
46724;BME280;32463;48.298;11.620;2023-12-07T12:31:35;96508.84;;;17.71;33.49
46724;BME280;32463;48.298;11.620;2023-12-07T12:34:02;96518.34;;;15.64;35.71
46724;BME280;32463;48.298;11.620;2023-12-07T12:36:28;96526.16;;;14.02;39.01
46724;BME280;32463;48.298;11.620;2023-12-07T12:38:55;96524.28;;;13.42;40.79
46724;BME280;32463;48.298;11.620;2023-12-07T12:41:22;96526.69;;;13.43;40.93
46724;BME280;32463;48.298;11.620;2023-12-07T12:43:49;96524.91;;;14.50;39.24
46724;BME280;32463;48.298;11.620;2023-12-07T12:46:18;96522.13;;;14.52;39.40
46724;BME280;32463;48.298;11.620;2023-12-07T12:48:55;96525.00;;;15.01;38.45
46724;BME280;32463;48.298;11.620;2023-12-07T12:51:24;96518.03;;;15.37;37.99
46724;BME280;32463;48.298;11.620;2023-12-07T12:53:51;96506.97;;;15.71;36.98